Mahan, West Virginia
Current Conditions -  °F | °C
As of 6:54 PM on Friday 19 Dec 2014 (Local Time) from KCRW Reporting Station
Overcast Overcast  
Wind Chill: 31°   Ceiling: 2200
Heat Index: 31°   Visibility: 10mi
Dew Point: 21°   Wind: 3mph
Humidity: 67%   Direction: 330°NNW
Pressure: 30.28"   Gusts: NA
Location:  38.174°N, 81.3902°W
Report Text: KCRW 192354Z 33003KT 10SM OVC022 M01/M06 A3028 RMK AO2 SLP265 60000 T10061061 10000 21011 51017
Loading
Personal Weather Stations






























Interactive Weather Map New forecast layout! Learn more

10-Day Weather Forecast

Advertisements
Track Severe Weather on mobile